Time;durP1;ratioP1;P1;durP2;ratioP2;P2;SDS_P1;SDS_P2;PMS_P1;PMS_P2;Temp;Humidity;BMP_temperature;BMP_pressure;BME280_temperature;BME280_humidity;BME280_pressure;Samples;Min_cycle;Max_cycle;Signal;HPM_P1;HPM_P2
2021/04/30 00:00:09;;;;;;;16.98;4.97;;;;;;;;;;1473788;40;20525;-81
2021/04/30 00:01:10;;;;;;;18.13;5.53;;;;;;;;;;1477398;40;20450;-80
2021/04/30 00:02:11;;;;;;;13.90;4.13;;;;;;;;;;1478099;40;20662;-80
2021/04/30 00:03:12;;;;;;;17.45;4.30;;;;;;;;;;1480682;40;20413;-81
2021/04/30 00:04:13;;;;;;;17.88;4.35;;;;;;;;;;1475586;40;20400;-81
2021/04/30 00:05:14;;;;;;;17.75;4.65;;;;;;;;;;1474902;40;20416;-82
2021/04/30 00:06:15;;;;;;;18.45;4.38;;;;;;;;;;1480085;40;20417;-80
2021/04/30 00:07:16;;;;;;;12.77;4.23;;;;;;;;;;1475390;40;20694;-80
2021/04/30 00:08:17;;;;;;;20.75;4.40;;;;;;;;;;1471520;40;20445;-81
2021/04/30 00:09:18;;;;;;;16.30;4.53;;;;;;;;;;1474437;40;20424;-81
2021/04/30 00:10:19;;;;;;;13.90;4.72;;;;;;;;;;1473674;40;21004;-81
2021/04/30 00:11:20;;;;;;;16.10;4.20;;;;;;;;;;1476748;40;20424;-81
2021/04/30 00:12:21;;;;;;;20.00;4.40;;;;;;;;;;1479509;40;20432;-80
2021/04/30 00:13:22;;;;;;;17.92;5.15;;;;;;;;;;1480168;40;20405;-80
2021/04/30 00:14:23;;;;;;;14.55;3.65;;;;;;;;;;1482791;40;20400;-80
2021/04/30 00:15:24;;;;;;;17.80;5.05;;;;;;;;;;1472740;40;20419;-81
2021/04/30 00:16:25;;;;;;;17.73;3.75;;;;;;;;;;1474117;40;20430;-80
2021/04/30 00:17:26;;;;;;;14.75;4.28;;;;;;;;;;1480009;40;20788;-81
2021/04/30 00:18:27;;;;;;;12.20;4.10;;;;;;;;;;1473916;40;20407;-81
2021/04/30 00:19:28;;;;;;;13.20;3.00;;;;;;;;;;1471567;40;20414;-80
2021/04/30 00:20:29;;;;;;;20.77;4.10;;;;;;;;;;1478271;40;20406;-81
2021/04/30 00:21:30;;;;;;;23.33;4.53;;;;;;;;;;1478576;40;20422;-81
2021/04/30 00:22:32;;;;;;;13.73;3.35;;;;;;;;;;1480604;40;20419;-81
2021/04/30 00:23:33;;;;;;;15.13;3.55;;;;;;;;;;1482507;40;20415;-81
2021/04/30 00:24:36;;;;;;;16.13;4.28;;;;;;;;;;1477120;40;20410;-81
2021/04/30 00:25:37;;;;;;;14.60;4.00;;;;;;;;;;1474014;40;20813;-80
2021/04/30 00:26:38;;;;;;;18.23;3.85;;;;;;;;;;1467445;40;20805;-81
2021/04/30 00:27:39;;;;;;;18.70;4.50;;;;;;;;;;1472610;40;20420;-81
2021/04/30 00:28:40;;;;;;;19.60;4.43;;;;;;;;;;1477993;40;20417;-80
2021/04/30 00:29:41;;;;;;;17.50;4.03;;;;;;;;;;1478254;40;20406;-81
2021/04/30 00:30:42;;;;;;;15.43;4.43;;;;;;;;;;1477030;40;20530;-81
2021/04/30 00:31:44;;;;;;;18.35;3.88;;;;;;;;;;1478372;40;20449;-81
2021/04/30 00:32:45;;;;;;;17.75;4.15;;;;;;;;;;1473723;40;20407;-80
2021/04/30 00:33:46;;;;;;;16.17;3.53;;;;;;;;;;1471428;40;20467;-81
2021/04/30 00:34:48;;;;;;;18.75;4.57;;;;;;;;;;1476121;40;20703;-81
2021/04/30 00:35:49;;;;;;;25.60;4.43;;;;;;;;;;1478105;40;20414;-80
2021/04/30 00:36:50;;;;;;;16.83;3.72;;;;;;;;;;1478143;40;20399;-80
2021/04/30 00:37:51;;;;;;;18.85;3.97;;;;;;;;;;1473533;40;20431;-80
2021/04/30 00:38:52;;;;;;;15.90;3.83;;;;;;;;;;1474121;40;20906;-81
2021/04/30 00:39:53;;;;;;;14.27;3.97;;;;;;;;;;1473424;40;20490;-81
2021/04/30 00:40:54;;;;;;;17.30;3.17;;;;;;;;;;1473801;40;20408;-80
2021/04/30 00:41:55;;;;;;;18.75;3.42;;;;;;;;;;1480102;40;20408;-80
2021/04/30 00:42:56;;;;;;;13.23;3.05;;;;;;;;;;1481054;40;20401;-80
2021/04/30 00:44:01;;;;;;;17.05;3.90;;;;;;;;;;1473850;40;20427;-81
2021/04/30 00:45:05;;;;;;;15.83;3.67;;;;;;;;;;1474446;40;20404;-79
2021/04/30 00:46:07;;;;;;;19.65;4.07;;;;;;;;;;1473595;40;20400;-80
2021/04/30 00:47:23;;;;;;;14.25;3.00;;;;;;;;;;1473207;40;20497;-80
2021/04/30 00:48:24;;;;;;;13.70;3.05;;;;;;;;;;1473401;40;20392;-79
2021/04/30 00:49:25;;;;;;;13.88;2.50;;;;;;;;;;1473049;40;20404;-81
2021/04/30 00:50:26;;;;;;;12.48;3.08;;;;;;;;;;1480299;40;20396;-80
2021/04/30 00:51:28;;;;;;;19.77;3.03;;;;;;;;;;1483983;40;20404;-79
2021/04/30 00:52:29;;;;;;;15.98;2.92;;;;;;;;;;1484118;40;20404;-79
2021/04/30 00:53:30;;;;;;;13.00;2.53;;;;;;;;;;1483197;40;20397;-80
2021/04/30 00:54:31;;;;;;;19.27;3.55;;;;;;;;;;1482709;40;20400;-79
2021/04/30 00:55:32;;;;;;;17.00;4.22;;;;;;;;;;1482720;40;20405;-79
2021/04/30 00:56:33;;;;;;;16.17;2.75;;;;;;;;;;1476678;40;20396;-78
2021/04/30 00:57:35;;;;;;;10.63;2.80;;;;;;;;;;1480696;40;20446;-78
2021/04/30 00:58:36;;;;;;;18.67;3.30;;;;;;;;;;1484435;40;20402;-78
2021/04/30 00:59:38;;;;;;;16.85;3.83;;;;;;;;;;1482624;40;20406;-80
2021/04/30 01:00:39;;;;;;;17.27;3.72;;;;;;;;;;1482961;40;20411;-80
2021/04/30 01:01:40;;;;;;;15.45;3.95;;;;;;;;;;1483932;40;20407;-80
2021/04/30 01:02:41;;;;;;;18.70;3.20;;;;;;;;;;1484740;39;20399;-80
2021/04/30 01:03:43;;;;;;;19.83;3.63;;;;;;;;;;1485088;40;20766;-79
2021/04/30 01:04:44;;;;;;;14.88;3.88;;;;;;;;;;1476086;40;20419;-80
2021/04/30 01:05:45;;;;;;;15.80;3.40;;;;;;;;;;1476031;40;20412;-79
2021/04/30 01:06:46;;;;;;;16.80;3.03;;;;;;;;;;1483571;40;20672;-80
2021/04/30 01:07:47;;;;;;;17.98;3.50;;;;;;;;;;1474946;40;20457;-80
2021/04/30 01:08:48;;;;;;;19.27;3.58;;;;;;;;;;1470161;40;20413;-80
2021/04/30 01:09:49;;;;;;;16.65;3.53;;;;;;;;;;1474160;40;20412;-80
2021/04/30 01:10:50;;;;;;;18.90;4.13;;;;;;;;;;1470291;40;20398;-80
2021/04/30 01:11:51;;;;;;;16.90;5.00;;;;;;;;;;1476963;40;20825;-80
2021/04/30 01:12:52;;;;;;;16.55;4.43;;;;;;;;;;1477414;40;20402;-80
2021/04/30 01:13:53;;;;;;;18.85;3.95;;;;;;;;;;1478352;40;20421;-80
2021/04/30 01:14:54;;;;;;;19.30;4.10;;;;;;;;;;1478522;40;20440;-79
2021/04/30 01:15:55;;;;;;;20.58;3.85;;;;;;;;;;1477622;40;20410;-80
2021/04/30 01:16:56;;;;;;;15.25;3.05;;;;;;;;;;1482784;40;20448;-80
2021/04/30 01:17:59;;;;;;;16.00;3.72;;;;;;;;;;1479222;40;20813;-81
2021/04/30 01:19:00;;;;;;;12.70;3.65;;;;;;;;;;1478143;40;20412;-81
2021/04/30 01:20:01;;;;;;;15.18;3.83;;;;;;;;;;1477356;40;20401;-80
2021/04/30 01:21:02;;;;;;;15.63;3.85;;;;;;;;;;1478083;40;20509;-80
2021/04/30 01:22:03;;;;;;;12.98;3.70;;;;;;;;;;1479146;40;21157;-80
2021/04/30 01:23:04;;;;;;;13.60;3.30;;;;;;;;;;1482739;40;20400;-80
2021/04/30 01:24:06;;;;;;;14.88;4.00;;;;;;;;;;1477278;40;20475;-80
2021/04/30 01:25:08;;;;;;;13.07;3.00;;;;;;;;;;1474003;40;20536;-79
2021/04/30 01:26:09;;;;;;;20.77;4.33;;;;;;;;;;1477938;40;20527;-79
2021/04/30 01:27:10;;;;;;;14.32;3.15;;;;;;;;;;1477773;40;20794;-79
2021/04/30 01:28:11;;;;;;;16.88;3.80;;;;;;;;;;1476914;40;21043;-82
2021/04/30 01:29:12;;;;;;;16.48;3.45;;;;;;;;;;1478430;40;20414;-81
2021/04/30 01:30:14;;;;;;;16.52;3.53;;;;;;;;;;1477892;40;20780;-81
2021/04/30 01:31:15;;;;;;;14.35;3.28;;;;;;;;;;1478349;40;20403;-82
2021/04/30 01:32:16;;;;;;;12.40;3.00;;;;;;;;;;1477540;40;20409;-81
2021/04/30 01:33:18;;;;;;;15.85;3.88;;;;;;;;;;1477990;40;20880;-81
2021/04/30 01:34:19;;;;;;;15.17;3.13;;;;;;;;;;1482381;40;20467;-82
2021/04/30 01:35:24;;;;;;;17.20;4.10;;;;;;;;;;1482258;40;20472;-82
2021/04/30 01:36:25;;;;;;;18.00;3.83;;;;;;;;;;1482246;40;20401;-82
2021/04/30 01:37:26;;;;;;;17.90;4.03;;;;;;;;;;1475090;40;20813;-82
2021/04/30 01:38:27;;;;;;;17.57;4.37;;;;;;;;;;1473905;40;20713;-82
2021/04/30 01:39:28;;;;;;;18.75;3.85;;;;;;;;;;1478442;40;20434;-82
2021/04/30 01:40:31;;;;;;;12.73;3.35;;;;;;;;;;1478558;40;20399;-81
2021/04/30 01:41:33;;;;;;;14.10;3.97;;;;;;;;;;1479853;40;20425;-81
2021/04/30 01:42:34;;;;;;;15.95;3.33;;;;;;;;;;1473923;40;20479;-81
2021/04/30 01:43:35;;;;;;;15.15;3.25;;;;;;;;;;1476074;40;20760;-81
2021/04/30 01:44:35;;;;;;;13.18;3.55;;;;;;;;;;1482755;40;20436;-81
2021/04/30 01:45:38;;;;;;;19.77;3.30;;;;;;;;;;1482130;40;20662;-81
2021/04/30 01:46:40;;;;;;;16.88;3.78;;;;;;;;;;1483081;40;20452;-82
2021/04/30 01:47:41;;;;;;;13.90;3.33;;;;;;;;;;1479807;40;20414;-82
2021/04/30 01:48:42;;;;;;;21.27;3.28;;;;;;;;;;1478404;40;20402;-81
2021/04/30 01:49:44;;;;;;;17.05;3.33;;;;;;;;;;1477558;40;20422;-83
2021/04/30 01:50:46;;;;;;;19.67;3.90;;;;;;;;;;1478675;40;20861;-82
2021/04/30 01:51:47;;;;;;;14.80;3.35;;;;;;;;;;1479077;40;20833;-81
2021/04/30 01:52:48;;;;;;;19.45;3.95;;;;;;;;;;1483660;40;20429;-82
2021/04/30 01:53:49;;;;;;;21.40;3.67;;;;;;;;;;1483995;40;20416;-81
2021/04/30 01:54:50;;;;;;;18.00;3.80;;;;;;;;;;1479768;40;20414;-81
2021/04/30 01:55:51;;;;;;;10.57;2.95;;;;;;;;;;1478768;40;20402;-80
2021/04/30 01:56:52;;;;;;;19.00;3.60;;;;;;;;;;1475314;40;20461;-81
2021/04/30 01:57:53;;;;;;;14.52;4.60;;;;;;;;;;1473761;40;20801;-80
2021/04/30 01:58:54;;;;;;;18.40;3.43;;;;;;;;;;1479026;40;20541;-80
2021/04/30 01:59:55;;;;;;;16.17;3.35;;;;;;;;;;1479624;40;20413;-80
2021/04/30 02:00:56;;;;;;;16.95;3.05;;;;;;;;;;1474592;40;20388;-81
2021/04/30 02:01:58;;;;;;;13.95;3.28;;;;;;;;;;1476880;40;20398;-81
2021/04/30 02:02:59;;;;;;;16.83;3.50;;;;;;;;;;1482140;40;20401;-82
2021/04/30 02:04:00;;;;;;;19.65;4.78;;;;;;;;;;1479353;40;20443;-82
2021/04/30 02:05:01;;;;;;;16.63;3.40;;;;;;;;;;1478839;40;20775;-81
2021/04/30 02:06:03;;;;;;;17.55;3.20;;;;;;;;;;1473841;40;20419;-81
2021/04/30 02:07:04;;;;;;;14.20;2.67;;;;;;;;;;1474199;40;20799;-80
2021/04/30 02:08:06;;;;;;;21.98;4.63;;;;;;;;;;1478900;40;20481;-80
2021/04/30 02:09:08;;;;;;;15.07;3.97;;;;;;;;;;1479025;40;20418;-80
2021/04/30 02:10:15;;;;;;;14.40;3.17;;;;;;;;;;1478726;40;20431;-80
2021/04/30 02:11:15;;;;;;;19.88;3.65;;;;;;;;;;1478729;40;20386;-81
2021/04/30 02:12:18;;;;;;;15.05;3.75;;;;;;;;;;1479578;40;20433;-80
2021/04/30 02:13:20;;;;;;;19.00;3.87;;;;;;;;;;1479650;40;20562;-80
2021/04/30 02:14:21;;;;;;;21.40;3.53;;;;;;;;;;1478277;40;20503;-80
2021/04/30 02:15:23;;;;;;;14.47;2.80;;;;;;;;;;1473929;40;20574;-80
2021/04/30 02:16:24;;;;;;;12.15;3.28;;;;;;;;;;1473791;40;20405;-80
2021/04/30 02:17:27;;;;;;;16.15;3.15;;;;;;;;;;1474176;40;20404;-80
2021/04/30 02:18:28;;;;;;;18.67;3.58;;;;;;;;;;1477466;40;20417;-81
2021/04/30 02:19:29;;;;;;;20.40;4.25;;;;;;;;;;1478503;40;20401;-80
2021/04/30 02:20:31;;;;;;;18.42;4.00;;;;;;;;;;1473908;40;20416;-80
2021/04/30 02:21:32;;;;;;;21.17;3.70;;;;;;;;;;1474159;40;20404;-81
2021/04/30 02:22:33;;;;;;;16.35;4.00;;;;;;;;;;1478479;40;20409;-80
2021/04/30 02:23:34;;;;;;;23.00;3.65;;;;;;;;;;1478683;40;20410;-80
2021/04/30 02:24:35;;;;;;;21.52;3.70;;;;;;;;;;1478640;40;20410;-80
2021/04/30 02:25:36;;;;;;;18.48;3.40;;;;;;;;;;1478882;40;20620;-80
2021/04/30 02:26:37;;;;;;;18.45;3.70;;;;;;;;;;1480309;40;20494;-80
2021/04/30 02:27:38;;;;;;;23.10;4.22;;;;;;;;;;1477622;40;20467;-80
2021/04/30 02:28:40;;;;;;;15.98;3.42;;;;;;;;;;1474092;40;20455;-80
2021/04/30 02:29:41;;;;;;;21.10;3.45;;;;;;;;;;1473562;40;20396;-80
2021/04/30 02:30:44;;;;;;;14.35;3.28;;;;;;;;;;1473673;40;20899;-79
2021/04/30 02:31:45;;;;;;;17.98;3.45;;;;;;;;;;1474371;40;20399;-80
2021/04/30 02:32:47;;;;;;;17.33;3.50;;;;;;;;;;1474215;40;20773;-80
2021/04/30 02:33:48;;;;;;;21.33;3.55;;;;;;;;;;1476380;40;20708;-80
2021/04/30 02:34:52;;;;;;;17.33;3.20;;;;;;;;;;1483226;40;20438;-80
2021/04/30 02:35:53;;;;;;;22.67;3.90;;;;;;;;;;1483029;40;20862;-81
2021/04/30 02:36:54;;;;;;;13.52;2.75;;;;;;;;;;1477468;40;20409;-80
2021/04/30 02:37:56;;;;;;;15.43;2.95;;;;;;;;;;1478216;40;20405;-80
2021/04/30 02:38:57;;;;;;;20.05;3.60;;;;;;;;;;1482892;40;20413;-81
2021/04/30 02:39:58;;;;;;;20.02;3.58;;;;;;;;;;1473815;40;20470;-80
2021/04/30 02:40:59;;;;;;;18.85;3.25;;;;;;;;;;1473756;40;20419;-80
2021/04/30 02:42:00;;;;;;;19.40;3.80;;;;;;;;;;1480147;40;21021;-82
2021/04/30 02:43:03;;;;;;;12.73;3.50;;;;;;;;;;1473735;40;20502;-81
2021/04/30 02:44:05;;;;;;;20.55;3.53;;;;;;;;;;1474103;40;20921;-81
2021/04/30 02:45:06;;;;;;;17.10;4.03;;;;;;;;;;1477224;40;21158;-81
2021/04/30 02:46:07;;;;;;;19.33;4.45;;;;;;;;;;1473780;40;20407;-80
2021/04/30 02:47:08;;;;;;;15.65;4.13;;;;;;;;;;1472893;40;20522;-80
2021/04/30 02:48:14;;;;;;;18.38;3.63;;;;;;;;;;1477941;40;20410;-80
2021/04/30 02:49:16;;;;;;;19.05;3.63;;;;;;;;;;1478397;40;20402;-80
2021/04/30 02:50:18;;;;;;;17.27;4.35;;;;;;;;;;1479928;40;20859;-80
2021/04/30 02:51:19;;;;;;;23.40;4.45;;;;;;;;;;1482689;40;20447;-80
2021/04/30 02:52:20;;;;;;;18.25;4.70;;;;;;;;;;1480036;40;20806;-80
2021/04/30 02:53:21;;;;;;;19.33;4.28;;;;;;;;;;1478426;40;20555;-82
2021/04/30 02:54:22;;;;;;;20.55;3.97;;;;;;;;;;1473153;40;20582;-80
2021/04/30 02:55:24;;;;;;;17.10;3.92;;;;;;;;;;1473894;40;21131;-80
2021/04/30 02:56:25;;;;;;;15.38;3.88;;;;;;;;;;1479532;40;20816;-80
2021/04/30 02:57:29;;;;;;;16.00;3.40;;;;;;;;;;1479079;40;20438;-79
2021/04/30 02:58:30;;;;;;;18.30;4.70;;;;;;;;;;1480430;40;20423;-81
2021/04/30 02:59:31;;;;;;;20.50;4.68;;;;;;;;;;1478720;40;20398;-79
2021/04/30 03:00:32;;;;;;;18.30;4.70;;;;;;;;;;1477954;40;20481;-81
2021/04/30 03:01:33;;;;;;;17.20;3.53;;;;;;;;;;1477520;40;20508;-80
2021/04/30 03:02:34;;;;;;;20.63;4.30;;;;;;;;;;1478605;40;20402;-79
2021/04/30 03:03:36;;;;;;;21.38;4.03;;;;;;;;;;1479404;40;20678;-80
2021/04/30 03:04:37;;;;;;;17.08;4.03;;;;;;;;;;1481035;40;20393;-79
2021/04/30 03:05:38;;;;;;;21.30;4.22;;;;;;;;;;1473760;40;20404;-81
2021/04/30 03:06:39;;;;;;;14.32;3.45;;;;;;;;;;1474230;40;20502;-80
2021/04/30 03:07:40;;;;;;;22.15;4.28;;;;;;;;;;1473073;40;20816;-80
2021/04/30 03:08:41;;;;;;;19.08;3.40;;;;;;;;;;1473938;40;20678;-80
2021/04/30 03:09:42;;;;;;;25.88;4.13;;;;;;;;;;1478521;40;20446;-80
2021/04/30 03:10:44;;;;;;;15.90;3.88;;;;;;;;;;1478839;40;20402;-80
2021/04/30 03:11:45;;;;;;;18.38;3.90;;;;;;;;;;1476145;40;20390;-80
2021/04/30 03:12:49;;;;;;;16.58;3.63;;;;;;;;;;1473419;40;20423;-80
2021/04/30 03:13:51;;;;;;;22.90;4.47;;;;;;;;;;1481966;40;20416;-80
2021/04/30 03:14:52;;;;;;;16.10;3.90;;;;;;;;;;1478259;40;20406;-79
2021/04/30 03:15:53;;;;;;;18.40;4.80;;;;;;;;;;1475164;40;20550;-80
2021/04/30 03:16:54;;;;;;;18.52;4.13;;;;;;;;;;1477934;40;20445;-81
2021/04/30 03:17:55;;;;;;;20.90;4.00;;;;;;;;;;1477815;40;20774;-80
2021/04/30 03:18:56;;;;;;;24.85;4.00;;;;;;;;;;1473950;40;20428;-80
2021/04/30 03:19:57;;;;;;;15.30;3.20;;;;;;;;;;1469996;40;20683;-80
2021/04/30 03:20:58;;;;;;;17.92;3.40;;;;;;;;;;1474230;40;20435;-80
2021/04/30 03:21:59;;;;;;;19.17;4.25;;;;;;;;;;1478075;40;20406;-80
2021/04/30 03:23:01;;;;;;;19.70;3.70;;;;;;;;;;1478665;40;20422;-80
2021/04/30 03:24:02;;;;;;;16.30;3.75;;;;;;;;;;1481462;40;20422;-81
2021/04/30 03:25:05;;;;;;;15.98;3.72;;;;;;;;;;1482872;40;20411;-81
2021/04/30 03:26:05;;;;;;;13.65;3.95;;;;;;;;;;1483678;40;20402;-81
2021/04/30 03:27:06;;;;;;;20.00;4.40;;;;;;;;;;1485425;40;20487;-82
2021/04/30 03:28:07;;;;;;;18.00;4.22;;;;;;;;;;1483998;40;20422;-80
2021/04/30 03:29:08;;;;;;;20.37;4.23;;;;;;;;;;1487560;40;20408;-80
2021/04/30 03:30:10;;;;;;;21.20;5.18;;;;;;;;;;1481786;40;20414;-80
2021/04/30 03:31:11;;;;;;;20.58;4.13;;;;;;;;;;1476808;40;20563;-79
2021/04/30 03:32:13;;;;;;;22.27;5.07;;;;;;;;;;1477381;40;20400;-79
2021/04/30 03:33:14;;;;;;;17.50;4.90;;;;;;;;;;1478124;40;20431;-80
2021/04/30 03:34:15;;;;;;;18.40;3.97;;;;;;;;;;1478343;40;20400;-79
2021/04/30 03:35:18;;;;;;;16.38;3.30;;;;;;;;;;1476961;40;20470;-79
2021/04/30 03:36:20;;;;;;;22.10;4.35;;;;;;;;;;1469901;40;20501;-80
2021/04/30 03:37:21;;;;;;;22.67;4.25;;;;;;;;;;1473879;40;20424;-80
2021/04/30 03:38:22;;;;;;;18.47;4.03;;;;;;;;;;1478791;40;20885;-80
2021/04/30 03:39:23;;;;;;;16.83;4.75;;;;;;;;;;1474405;40;20401;-81
2021/04/30 03:40:24;;;;;;;28.65;4.75;;;;;;;;;;1470073;40;20436;-80
2021/04/30 03:41:25;;;;;;;19.45;4.55;;;;;;;;;;1471405;40;21122;-80
2021/04/30 03:42:26;;;;;;;23.35;4.80;;;;;;;;;;1474105;40;20391;-80
2021/04/30 03:43:27;;;;;;;22.00;4.05;;;;;;;;;;1479170;40;20661;-80
2021/04/30 03:44:28;;;;;;;15.85;3.97;;;;;;;;;;1475343;40;20457;-79
2021/04/30 03:45:29;;;;;;;18.83;4.63;;;;;;;;;;1474919;40;20605;-79
2021/04/30 03:46:30;;;;;;;20.25;4.65;;;;;;;;;;1479472;40;20398;-80
2021/04/30 03:47:31;;;;;;;17.77;4.83;;;;;;;;;;1478290;40;21382;-79
2021/04/30 03:48:32;;;;;;;15.63;5.25;;;;;;;;;;1479570;40;20413;-79
2021/04/30 03:49:33;;;;;;;19.77;4.88;;;;;;;;;;1482694;40;20776;-79
2021/04/30 03:50:34;;;;;;;23.75;5.93;;;;;;;;;;1478043;40;20498;-79
2021/04/30 03:51:35;;;;;;;17.38;4.18;;;;;;;;;;1478031;40;20561;-79
2021/04/30 03:52:36;;;;;;;22.17;4.70;;;;;;;;;;1482655;40;20462;-80
2021/04/30 03:53:36;;;;;;;16.95;4.07;;;;;;;;;;1482454;40;20424;-79
2021/04/30 03:54:37;;;;;;;17.75;5.00;;;;;;;;;;1477226;40;21653;-80
2021/04/30 03:55:39;;;;;;;24.45;5.32;;;;;;;;;;1474086;40;20725;-79
2021/04/30 03:56:40;;;;;;;21.13;5.18;;;;;;;;;;1475088;40;20444;-81
2021/04/30 03:57:40;;;;;;;20.70;4.85;;;;;;;;;;1478452;40;20775;-81
2021/04/30 03:58:41;;;;;;;21.05;5.45;;;;;;;;;;1478607;40;20515;-80
2021/04/30 03:59:43;;;;;;;18.73;5.70;;;;;;;;;;1478268;40;20487;-80
2021/04/30 04:00:44;;;;;;;16.77;5.35;;;;;;;;;;1473434;40;20392;-80
2021/04/30 04:01:45;;;;;;;16.50;5.18;;;;;;;;;;1465920;40;20407;-80
2021/04/30 04:02:47;;;;;;;18.67;4.80;;;;;;;;;;1472434;40;20435;-80
2021/04/30 04:03:48;;;;;;;17.38;4.35;;;;;;;;;;1471086;40;20416;-79
2021/04/30 04:04:49;;;;;;;25.30;5.10;;;;;;;;;;1473527;40;20407;-80
2021/04/30 04:05:51;;;;;;;19.27;4.57;;;;;;;;;;1469868;40;20402;-80
2021/04/30 04:06:52;;;;;;;15.55;4.40;;;;;;;;;;1473061;40;20444;-80
2021/04/30 04:07:53;;;;;;;17.52;4.90;;;;;;;;;;1477995;40;20402;-81
2021/04/30 04:08:54;;;;;;;22.67;4.90;;;;;;;;;;1476891;40;20411;-79
2021/04/30 04:09:54;;;;;;;20.88;4.50;;;;;;;;;;1478322;40;20417;-79
2021/04/30 04:10:55;;;;;;;23.98;5.60;;;;;;;;;;1469939;40;20464;-80
2021/04/30 04:11:56;;;;;;;19.65;4.85;;;;;;;;;;1472702;40;20448;-80
2021/04/30 04:12:57;;;;;;;18.63;5.05;;;;;;;;;;1482194;40;20426;-80
2021/04/30 04:13:58;;;;;;;22.25;4.65;;;;;;;;;;1474252;40;20419;-80
2021/04/30 04:14:59;;;;;;;22.13;4.35;;;;;;;;;;1469727;40;20402;-80
2021/04/30 04:16:03;;;;;;;19.90;5.25;;;;;;;;;;1473745;40;20400;-80
2021/04/30 04:17:04;;;;;;;18.13;5.03;;;;;;;;;;1477429;40;21258;-81
2021/04/30 04:18:24;;;;;;;19.05;5.68;;;;;;;;;;1478366;40;20407;-80
2021/04/30 04:19:25;;;;;;;17.65;5.28;;;;;;;;;;1477420;40;20399;-80
2021/04/30 04:20:26;;;;;;;17.47;5.03;;;;;;;;;;1478300;40;20648;-80
2021/04/30 04:21:27;;;;;;;17.80;4.80;;;;;;;;;;1478176;40;20926;-80
2021/04/30 04:22:28;;;;;;;21.95;5.55;;;;;;;;;;1476932;40;20426;-80
2021/04/30 04:23:29;;;;;;;21.67;5.13;;;;;;;;;;1473514;40;20408;-80
2021/04/30 04:24:30;;;;;;;23.38;4.97;;;;;;;;;;1477930;40;20417;-80
2021/04/30 04:25:31;;;;;;;21.65;5.43;;;;;;;;;;1482596;40;20493;-80
2021/04/30 04:26:32;;;;;;;19.67;4.50;;;;;;;;;;1482234;40;20418;-80
2021/04/30 04:27:34;;;;;;;16.08;4.10;;;;;;;;;;1474047;40;20404;-80
2021/04/30 04:28:35;;;;;;;17.83;4.75;;;;;;;;;;1475531;40;20456;-80
2021/04/30 04:29:36;;;;;;;16.50;4.38;;;;;;;;;;1482792;40;20421;-80
2021/04/30 04:30:37;;;;;;;19.10;5.13;;;;;;;;;;1482856;40;20411;-80
2021/04/30 04:31:38;;;;;;;24.20;5.43;;;;;;;;;;1482723;40;20436;-80
2021/04/30 04:32:39;;;;;;;17.92;4.30;;;;;;;;;;1478487;40;20395;-79
2021/04/30 04:33:40;;;;;;;20.80;5.45;;;;;;;;;;1480357;40;20401;-81
2021/04/30 04:34:41;;;;;;;21.35;4.75;;;;;;;;;;1479480;40;20417;-79
2021/04/30 04:35:42;;;;;;;20.92;5.63;;;;;;;;;;1478763;40;20465;-80
2021/04/30 04:36:44;;;;;;;18.05;5.22;;;;;;;;;;1478406;40;20391;-79
2021/04/30 04:37:45;;;;;;;21.42;6.50;;;;;;;;;;1483076;40;20416;-81
2021/04/30 04:38:46;;;;;;;25.60;6.35;;;;;;;;;;1483823;40;20416;-80
2021/04/30 04:39:47;;;;;;;23.13;5.57;;;;;;;;;;1483613;40;20752;-80
2021/04/30 04:40:48;;;;;;;24.90;5.18;;;;;;;;;;1480287;40;20410;-80
2021/04/30 04:41:49;;;;;;;18.02;5.05;;;;;;;;;;1476923;40;20446;-79
2021/04/30 04:42:50;;;;;;;22.60;5.87;;;;;;;;;;1479867;40;20467;-80
2021/04/30 04:43:51;;;;;;;23.92;7.28;;;;;;;;;;1476542;40;20709;-80
2021/04/30 04:44:52;;;;;;;15.88;5.75;;;;;;;;;;1473576;40;20396;-80
2021/04/30 04:45:54;;;;;;;24.93;6.53;;;;;;;;;;1480604;40;20545;-80
2021/04/30 04:46:55;;;;;;;18.00;6.05;;;;;;;;;;1485481;40;20400;-79
2021/04/30 04:47:56;;;;;;;16.38;6.20;;;;;;;;;;1483348;40;20385;-81
2021/04/30 04:48:58;;;;;;;17.88;6.57;;;;;;;;;;1482775;40;20404;-80
2021/04/30 04:50:13;;;;;;;28.73;7.47;;;;;;;;;;1485192;40;20616;-80
2021/04/30 04:51:15;;;;;;;21.58;5.90;;;;;;;;;;1483642;40;20395;-80
2021/04/30 04:52:16;;;;;;;23.65;6.60;;;;;;;;;;1479255;40;20406;-80
2021/04/30 04:53:17;;;;;;;24.50;7.22;;;;;;;;;;1478046;40;20660;-80
2021/04/30 04:54:20;;;;;;;29.47;7.37;;;;;;;;;;1477821;40;20493;-80
2021/04/30 04:55:21;;;;;;;18.42;6.10;;;;;;;;;;1472832;40;20404;-79
2021/04/30 04:56:25;;;;;;;18.88;6.70;;;;;;;;;;1473666;40;20420;-80
2021/04/30 04:57:26;;;;;;;24.85;6.70;;;;;;;;;;1474338;40;20404;-80
2021/04/30 04:58:27;;;;;;;20.38;7.22;;;;;;;;;;1478256;40;20593;-80
2021/04/30 04:59:28;;;;;;;20.57;7.07;;;;;;;;;;1478325;40;20450;-80
2021/04/30 05:00:32;;;;;;;21.75;7.35;;;;;;;;;;1477380;40;20957;-80
2021/04/30 05:01:33;;;;;;;24.25;8.38;;;;;;;;;;1475088;40;20418;-79
2021/04/30 05:02:34;;;;;;;19.42;8.00;;;;;;;;;;1472162;40;20407;-80
2021/04/30 05:03:35;;;;;;;22.40;9.15;;;;;;;;;;1475902;40;20434;-80
2021/04/30 05:04:38;;;;;;;19.83;8.73;;;;;;;;;;1482613;40;20505;-79
2021/04/30 05:05:40;;;;;;;16.40;8.57;;;;;;;;;;1482417;40;20401;-80
2021/04/30 05:06:41;;;;;;;18.23;9.00;;;;;;;;;;1482363;40;20414;-80
2021/04/30 05:07:42;;;;;;;21.02;9.48;;;;;;;;;;1482045;40;20411;-80
2021/04/30 05:08:43;;;;;;;16.05;10.02;;;;;;;;;;1480660;40;20404;-81
2021/04/30 05:09:44;;;;;;;20.95;9.48;;;;;;;;;;1477373;40;20394;-80
2021/04/30 05:10:45;;;;;;;25.80;11.50;;;;;;;;;;1478320;40;20870;-80
2021/04/30 05:11:46;;;;;;;18.70;9.90;;;;;;;;;;1480332;40;20412;-79
2021/04/30 05:12:47;;;;;;;19.35;11.18;;;;;;;;;;1477752;40;20406;-80
2021/04/30 05:13:48;;;;;;;19.45;12.00;;;;;;;;;;1477751;40;20486;-79
2021/04/30 05:14:49;;;;;;;19.67;11.80;;;;;;;;;;1469491;40;20394;-80
2021/04/30 05:15:50;;;;;;;20.67;12.32;;;;;;;;;;1465468;40;20407;-80
2021/04/30 05:16:51;;;;;;;19.40;12.55;;;;;;;;;;1469590;40;20821;-80
2021/04/30 05:17:53;;;;;;;21.58;12.68;;;;;;;;;;1476625;40;20795;-80
2021/04/30 05:18:55;;;;;;;20.17;13.13;;;;;;;;;;1475597;40;20470;-80
2021/04/30 05:19:56;;;;;;;21.63;14.48;;;;;;;;;;1473888;40;20420;-80
2021/04/30 05:20:57;;;;;;;17.88;12.10;;;;;;;;;;1473644;40;20422;-80
2021/04/30 05:21:58;;;;;;;22.13;13.77;;;;;;;;;;1469177;40;20420;-80
2021/04/30 05:23:00;;;;;;;21.90;13.40;;;;;;;;;;1478274;40;20398;-80
2021/04/30 05:24:02;;;;;;;20.88;12.93;;;;;;;;;;1482499;40;20496;-81
2021/04/30 05:25:03;;;;;;;23.23;12.95;;;;;;;;;;1477570;40;20402;-80
2021/04/30 05:26:04;;;;;;;19.15;13.23;;;;;;;;;;1477491;40;20458;-81
2021/04/30 05:27:06;;;;;;;24.38;13.88;;;;;;;;;;1480610;40;20405;-81
2021/04/30 05:28:07;;;;;;;19.90;13.20;;;;;;;;;;1477209;40;20410;-81
2021/04/30 05:29:14;;;;;;;26.77;13.67;;;;;;;;;;1473940;40;20675;-81
2021/04/30 05:30:15;;;;;;;21.70;13.90;;;;;;;;;;1478024;40;20657;-80
2021/04/30 05:31:16;;;;;;;22.58;12.93;;;;;;;;;;1478907;40;20404;-80
2021/04/30 05:32:18;;;;;;;21.73;13.15;;;;;;;;;;1481762;40;20405;-80
2021/04/30 05:33:19;;;;;;;26.17;13.77;;;;;;;;;;1478078;40;20701;-80
2021/04/30 05:34:20;;;;;;;25.77;12.48;;;;;;;;;;1473306;40;20424;-80
2021/04/30 05:35:21;;;;;;;24.98;13.85;;;;;;;;;;1471338;40;20420;-80
2021/04/30 05:36:22;;;;;;;20.98;14.25;;;;;;;;;;1469231;40;20425;-80
2021/04/30 05:37:26;;;;;;;22.85;13.30;;;;;;;;;;1469626;40;20560;-80
2021/04/30 05:38:27;;;;;;;23.30;13.10;;;;;;;;;;1473725;40;20997;-80
2021/04/30 05:39:28;;;;;;;22.63;13.95;;;;;;;;;;1473366;40;20423;-81
2021/04/30 05:40:29;;;;;;;25.10;13.63;;;;;;;;;;1472323;40;20411;-82
2021/04/30 05:41:30;;;;;;;28.48;14.65;;;;;;;;;;1476277;40;21070;-80
2021/04/30 05:42:31;;;;;;;25.02;12.55;;;;;;;;;;1477514;40;20398;-80
2021/04/30 05:43:32;;;;;;;27.30;13.43;;;;;;;;;;1480650;40;20975;-81
2021/04/30 05:44:33;;;;;;;24.85;13.13;;;;;;;;;;1478633;40;20766;-80
2021/04/30 05:45:34;;;;;;;25.52;13.55;;;;;;;;;;1477711;40;20700;-81
2021/04/30 05:46:35;;;;;;;26.10;13.98;;;;;;;;;;1473484;40;20502;-81
2021/04/30 05:47:37;;;;;;;24.85;13.38;;;;;;;;;;1474897;40;20414;-80
2021/04/30 05:48:38;;;;;;;27.40;14.20;;;;;;;;;;1477895;40;20533;-80
2021/04/30 05:49:42;;;;;;;24.35;13.18;;;;;;;;;;1474033;40;20404;-79
2021/04/30 05:50:43;;;;;;;27.92;13.73;;;;;;;;;;1476973;40;20488;-79
2021/04/30 05:51:44;;;;;;;26.20;15.68;;;;;;;;;;1482700;40;20406;-80
2021/04/30 05:52:45;;;;;;;24.45;13.60;;;;;;;;;;1487140;40;20411;-79
2021/04/30 05:53:46;;;;;;;22.65;12.80;;;;;;;;;;1487616;40;20528;-80
2021/04/30 05:55:03;;;;;;;20.80;12.70;;;;;;;;;;1483806;40;20421;-79
2021/04/30 05:56:05;;;;;;;24.33;13.38;;;;;;;;;;1484363;40;20464;-81
2021/04/30 05:57:06;;;;;;;28.52;14.30;;;;;;;;;;1484625;40;20398;-81
2021/04/30 05:58:07;;;;;;;32.13;13.73;;;;;;;;;;1482183;40;20461;-81
2021/04/30 05:59:08;;;;;;;26.15;12.90;;;;;;;;;;1477023;40;20655;-81
2021/04/30 06:00:12;;;;;;;22.88;13.30;;;;;;;;;;1480977;40;20413;-80
2021/04/30 06:01:13;;;;;;;23.05;13.02;;;;;;;;;;1478875;40;20754;-80
2021/04/30 06:02:15;;;;;;;22.40;12.70;;;;;;;;;;1476782;40;20416;-79